Onion Creek, California Weather observations

Data are for observation ending at time listed.
 Day   Time    Ave.   Ave.  Ave.  Vector   Max.   Stn.    Total    Solar   Ave.   Snow 
  of    of     Air    Rel.  Wind   Wind    Wind   Baro.  Precip.   Rad.    Soil   Depth
Year   Day     Temp.  Hum.  Speed  Dir.    Gust   Pres.                    Temp.       
2016   (PST)    F      %     mph   deg.    mph     mb.     in.     W/m2     F      in. 
---------------------------------------------------------------------------------------  
 343    5:40   34.5    97    1.0   218      4.0   828.8   29.41       0    34.1   999.0
 343    5:50   34.5    97    0.8   128      3.2   828.7   29.41       0    34.1   999.0
 343    6:00   34.3    97    0.6   136      3.0   828.7   29.44       0    34.1   999.0
 343    6:10   34.7    97    2.4   226      8.8   828.9   29.44       0    34.1   999.0
 343    6:20   35.2    97    1.9   256      8.8   829.2   29.46       0    34.1   999.0
 343    6:30   35.0    97    0.9   196      2.9   829.4   29.46       0    34.1   999.0
 343    6:40   35.0    97    1.1   169      4.8   829.4   29.46       0    34.1   999.0
 343    6:50   35.1    97    1.0   153      5.5   829.4   29.46       0    34.1   999.0
 343    7:00   35.4    97    0.8   178      3.8   829.5   29.49       0    34.1   999.0
 343    7:10   35.7    97    1.6   157      5.8   829.4   29.49       1    34.1   999.0
 343    7:20   35.7    97    1.1   139      3.3   829.3   29.49       3    34.1   999.0
 343    7:30   35.8    97    1.1   226      5.3   829.4   29.49       6    34.1   999.0
 343    7:40   35.9    97    1.3   215      6.3   829.5   29.49      10    34.1   999.0
 343    7:50   36.1    97    0.7   202      4.5   829.5   29.52       8    34.1   999.0
 343    8:00   36.1    97    0.8   157      2.9   829.6   29.52      20    34.1   999.0
 343    8:10   36.1    97    1.3   177      7.4   829.6   29.52      15    34.1   999.0
 343    8:20   36.2    97    1.3   203     10.9   829.7   29.52      13    34.1   999.0
 343    8:30   36.4    97    1.0   242      3.6   829.7   29.55      21    34.1   999.0
 343    8:40   36.6    97    1.6   242      4.2   829.9   29.52      30    34.1   999.0
 343    8:50   37.2    97    2.3   249     12.3   830.2   29.55      28    34.1   999.0
 343    9:00   37.1    97    0.8   225      4.5   830.3   29.58      39    34.1   999.0
 343    9:10   37.2    97    1.3   226      5.7   830.4   29.58      44    34.1   999.0
 343    9:20   37.5    97    1.9   262      6.6   830.7   29.58      49    34.1   999.0
 343    9:30   37.7    97    1.5   255      8.3   830.9   29.61      62    34.1   999.0
 343    9:40   38.0    97    1.8   258      5.3   830.9   29.58      72    34.1   999.0
 343    9:50   38.3    97    2.4   245      8.9   830.9   29.58      85    34.1   999.0
 343   10:00   38.6    97    1.9   249      7.8   831.0   29.61     122    34.1   999.0
 343   10:10   39.2    96    2.5   260      8.0   831.2   29.61     117    34.1   999.0
 343   10:20   39.0    96    1.6   227      5.9   831.3   29.61      98    34.1   999.0
 343   10:30   39.3    96    2.2   263      7.4   831.3   29.61     176    34.1   999.0
 343   10:40   40.0    95    3.3   239     15.0   831.3   29.61     184    34.1   999.0
 343   10:50   40.0    94    2.4   257      6.9   831.3   29.64     180    34.1   999.0
 343   11:00   40.2    94    3.0   269      9.4   831.2   29.61     123    34.1   999.0
 343   11:10   39.7    94    1.8   260      6.1   831.2   29.61     106    34.1   999.0
 343   11:20   40.0    95    2.4   266     12.6   831.1   29.61     165    34.1   999.0
 343   11:30   40.1    95    2.8   248      8.8   831.1   29.64     118    34.1   999.0
 343   11:40   39.9    95    2.2   254     10.4   831.2   29.61     116    34.1   999.0
 343   11:50   40.0    95    3.0   252      9.3   831.1   29.64     124    34.1   999.0
 343   12:00   40.0    96    3.0   248      8.8   831.0   29.61      93    34.1   999.0
 343   12:10   40.2    95    2.6   263      8.8   830.9   29.64     131    34.1   999.0
 343   12:20   39.8    95    1.8   268      6.4   830.8   29.64      67    34.1   999.0
 343   12:30   40.0    96    2.3   260      7.7   830.8   29.67     153    34.1   999.0
 343   12:40   40.2    95    2.4   277      8.8   831.0   29.64     108    34.1   999.0
 343   12:50   40.4    95    2.3   260      9.9   830.9   29.67     122    34.1   999.0
 343   13:00   40.6    95    3.4   244     12.5   831.0   29.64     120    34.1   999.0
 343   13:10   40.5    95    3.7   252     17.9   831.0   29.67     121    34.1   999.0
 343   13:20   40.8    95    2.5   264      7.6   831.1   29.67     138    34.1   999.0
 343   13:30   40.7    94    4.2   249     13.2   831.2   29.67     128    34.1   999.0
 343   13:40   40.6    94    2.9   266      8.1   831.1   29.67     121    34.1   999.0
 343   13:50   40.5    94    3.6   249     17.9   831.2   29.67     108    34.1   999.0
 343   14:00   40.5    94    3.0   242     10.8   831.1   29.67      97    34.1   999.0
 343   14:10   40.3    94    3.7   267     14.0   831.1   29.67      92    34.1   999.0
 343   14:20   40.1    94    3.1   256      8.7   831.1   29.67      63    34.1   999.0
 343   14:30   39.8    95    4.4   256     12.0   831.1   29.67      55    34.1   999.0
 343   14:40   39.6    95    3.0   260      6.6   831.1   29.67      46    34.1   999.0
 343   14:50   39.4    96    2.6   258     10.4   831.2   29.67      64    34.1   999.0
 343   15:00   39.4    96    2.3   264      5.7   831.1   29.67      31    34.1   999.0
 343   15:10   39.2    96    2.4   266      7.5   831.1   29.67      22    34.1   999.0
 343   15:20   39.0    96    2.2   270      8.3   831.2   29.67      13    34.1   999.0
 343   15:30   39.0    97    2.3   274     11.5   831.1   29.70      17    34.1   999.0
 343   15:40   39.0    97    2.4   276      9.6   831.3   29.70      12    34.0   999.0
 343   15:50   38.9    97    2.6   236     11.6   831.3   29.70       9    34.0   999.0
 343   16:00   39.0    97    2.7   271      9.9   831.3   29.70       9    34.0   999.0
 343   16:10   39.2    97    3.7   248     14.5   831.3   29.70       5    34.0   999.0
 343   16:20   39.4    97    5.4   247     14.0   831.7   29.73       5    34.0   999.0
 343   16:30   39.3    97    3.7   265     11.4   831.8   29.73       2    34.0   999.0
 343   16:40   39.1    96    2.3   262      5.8   831.7   29.73       1    34.0   999.0
 343   16:50   38.8    96    3.4   258     15.7   832.0   29.73       0    34.0   999.0
 343   17:00   39.1    97    2.9   247     11.2   831.7   29.73       0    34.0   999.0
 343   17:10   39.0    96    3.2   252     10.9   831.7   29.73       0    34.0   999.0
 343   17:20   38.9    97    2.8   258      7.3   831.8   29.73       0    34.0   999.0
 343   17:30   39.0    97    3.0   272     13.0   831.9   29.73       0    34.0   999.0
 343   17:40   38.9    97    4.1   262     10.6   831.8   29.76       0    34.0   999.0
 343   17:50   39.0    97    2.7   267     12.3   831.9   29.76       0    34.0   999.0
 343   18:00   38.9    97    2.8   276      9.4   831.9   29.76       0    34.0   999.0
 343   18:10   38.8    96    3.1   289      9.3   832.0   29.76       0    34.0   999.0
 343   18:20   38.8    96    2.7   248      8.6   832.2   29.76       0    34.0   999.0
 343   18:30   38.7    96    2.8   250     10.6   832.2   29.80       0    34.0   999.0
 343   18:40   38.7    96    2.9   259      8.0   832.2   29.76       0    34.0   999.0
 343   18:50   38.7    96    2.5   240     13.4   832.4   29.80       0    34.0   999.0
 343   19:00   38.0    96    2.2   207      7.0   832.2   29.76       0    34.0   999.0
 343   19:10   38.2    96    1.8   238      5.7   832.3   29.80       0    34.0   999.0
 343   19:20   38.4    97    2.7   266      8.5   832.3   29.80       0    34.0   999.0
 343   19:30   38.6    96    2.2   271      7.2   832.3   29.80       0    34.0   999.0
 343   19:40   38.4    96    2.0   248      9.0   832.6   29.80       0    34.0   999.0
 343   19:50   38.4    97    2.3   254      7.8   832.7   29.80       0    34.0   999.0
 343   20:00   38.6    97    4.6   238     15.1   832.7   29.80       0    34.0   999.0
 343   20:10   38.4    96    3.8   253      9.9   832.9   29.80       0    34.0   999.0
 343   20:20   38.1    96    2.5   254     11.5   833.0   29.80       0    34.0   999.0
 343   20:30   37.7    96    2.8   254      8.8   833.3   29.80       0    34.0   999.0
 343   20:40   37.6    96    2.6   256      8.2   833.5   29.80       0    34.0   999.0
 343   20:50   37.3    96    1.6   270      6.4   833.5   29.80       0    34.0   999.0
 343   21:00   37.1    96    1.6   283      5.3   833.5   29.83       0    34.0   999.0
 343   21:10   37.1    96    1.9   256     10.9   833.4   29.80       0    34.0   999.0
 343   21:20   36.9    96    1.3   245      8.3   833.4   29.80       0    34.0   999.0
 343   21:30   37.2    96    2.3   255      8.0   833.5   29.80       0    34.0   999.0
 343   21:40   37.3    96    1.5   234      5.9   833.5   29.80       0    33.9   999.0
 343   21:50   37.0    96    2.1   254      8.0   833.6   29.80       0    33.9   999.0
 343   22:00   37.0    97    1.8   266      6.8   833.6   29.80       0    33.9   999.0
 343   22:10   37.1    97    1.8   258      9.1   833.8   29.83       0    33.9   999.0
 343   22:20   37.2    97    2.4   260     12.1   833.8   29.83       0    33.9   999.0
 343   22:30   37.5    96    3.2   246      9.2   833.9   29.83       0    33.9   999.0
 343   22:40   37.3    96    1.2   115      4.0   833.9   29.83       0    33.9   999.0
 343   22:50   37.3    96    1.9   239      7.6   833.8   29.83       0    33.9   999.0
 343   23:00   37.4    96    1.2   212      5.3   833.8   29.83       0    33.9   999.0
 343   23:10   37.5    96    1.7   255      6.8   833.8   29.83       0    33.9   999.0
 343   23:20   37.6    97    2.3   248     11.2   833.8   29.83       0    33.9   999.0
 343   23:30   37.6    97    1.4   249      9.3   833.6   29.83       0    33.9   999.0
 343   23:40   37.6    97    2.4   249      9.0   833.5   29.83       0    33.9   999.0
 343   23:50   37.5    97    1.6   221      5.0   833.5   29.83       0    33.9   999.0
 344    0:00   37.3    97    1.2   259      3.7   833.6   29.83       0    33.9   999.0
 344    0:10   37.1    97    1.6   293      5.8   833.5   29.86       0    33.9   999.0
 344    0:20   37.5    97    2.1   256      6.4   833.4   29.83       0    33.9   999.0
 344    0:30   37.3    97    0.7   243      3.4   833.4   29.83       0    33.9   999.0
 344    0:40   37.3    97    1.6   262      4.5   833.4   29.83       0    33.9   999.0
 344    0:50   37.0    97    0.8   258      3.9   833.4   29.86       0    33.9   999.0
 344    1:00   37.2    97    1.3   256      6.4   833.4   29.83       0    33.9   999.0
 344    1:10   38.1    97    2.5   248      8.6   833.2   29.86       0    33.9   999.0
 344    1:20   37.9    97    0.8   172      3.8   833.1   29.86       0    33.9   999.0
 344    1:30   37.6    97    1.1   268      3.7   833.1   29.86       0    33.9   999.0
 344    1:40   37.5    97    0.6   253      3.7   833.2   29.86       0    33.9   999.0
 344    1:50   38.0    97    2.3   277      8.4   833.4   29.86       0    33.9   999.0
 344    2:00   38.2    97    1.7   257      6.8   833.5   29.86       0    33.9   999.0
 344    2:10   37.9    97    2.3   276      5.9   833.7   29.89       0    33.9   999.0
 344    2:20   38.4    97    2.4   255      7.7   833.7   29.86       0    33.9   999.0
 344    2:30   38.1    97    1.9   230      6.5   833.6   29.86       0    33.9   999.0
 344    2:40   37.9    97    0.9   221      5.0   833.5   29.89       0    33.9   999.0
 344    2:50   37.9    97    1.4   243      3.2   833.4   29.89       0    33.9   999.0
 344    3:00   38.5    98    2.7   278     10.0   833.4   29.92       0    33.9   999.0
 344    3:10   38.7    98    2.2   272      6.2   833.5   29.92       0    33.9   999.0
 344    3:20   38.9    98    3.3   269     16.4   833.6   29.92       0    33.9   999.0
 344    3:30   39.1    98    3.2   225     13.6   833.3   29.92       0    33.9   999.0
 344    3:40   38.4    97    2.4   219      7.7   833.2   29.92       0    33.9   999.0
 344    3:50   38.4    97    1.7   243      5.5   833.2   29.92       0    33.9   999.0
 344    4:00   38.8    97    3.1   243      7.6   833.1   29.92       0    33.9   999.0
 344    4:10   39.2    98    3.8   247     10.2   833.2   29.92       0    33.9   999.0
 344    4:20   39.1    97    2.5   244     10.0   833.3   29.95       0    33.8   999.0
 344    4:30   39.0    97    2.7   263      9.0   833.1   29.95       0    33.8   999.0
 344    4:40   39.0    97    3.0   241      9.8   833.1   29.95       0    33.8   999.0
 344    4:50   38.7    97    2.7   229      9.6   833.3   29.95       0    33.8   999.0
 344    5:00   38.7    97    2.4   252      7.2   833.5   29.95       0    33.8   999.0
 344    5:10   38.8    98    2.2   276      7.4   833.4   29.98       0    33.8   999.0
 344    5:20   38.8    98    2.7   238      7.2   833.3   29.98       0    33.8   999.0
 344    5:30   38.6    97    1.7   225      5.5   833.4   29.98       0    33.8   999.0

Return to Onion Creek graphs page.


Western Regional Climate Center,wrcc@dri.edu